Time;durP1;ratioP1;P1;durP2;ratioP2;P2;SDS_P1;SDS_P2;PMS_P1;PMS_P2;Temp;Humidity;BMP_temperature;BMP_pressure;BME280_temperature;BME280_humidity;BME280_pressure;Samples;Min_cycle;Max_cycle;Signal;HPM_P1;HPM_P2
2022/02/19 00:00:24;;;;;;;3.40;3.17;;;13.50;98.30;;;;;;5142047;27;20432;-67
2022/02/19 00:03:06;;;;;;;3.07;2.77;;;13.50;97.80;;;;;;5140882;28;20491;-68
2022/02/19 00:05:37;;;;;;;4.50;3.20;;;13.60;97.70;;;;;;5142529;27;20480;-68
2022/02/19 00:08:16;;;;;;;3.40;3.10;;;13.50;97.60;;;;;;5141723;28;20556;-68
2022/02/19 00:10:47;;;;;;;2.93;2.73;;;13.50;98.10;;;;;;5140771;28;20512;-66
2022/02/19 00:13:18;;;;;;;3.73;3.43;;;13.40;98.00;;;;;;5141686;28;20970;-67
2022/02/19 00:15:50;;;;;;;3.93;3.53;;;13.30;99.30;;;;;;5141481;27;20528;-66
2022/02/19 00:18:22;;;;;;;3.83;3.43;;;13.30;99.20;;;;;;5142598;27;20446;-66
2022/02/19 00:20:57;;;;;;;3.30;3.00;;;13.40;99.20;;;;;;5141908;27;20455;-67
2022/02/19 00:23:29;;;;;;;3.13;2.93;;;13.40;98.60;;;;;;5141282;27;20476;-66
2022/02/19 00:26:00;;;;;;;3.43;3.13;;;13.30;98.70;;;;;;5138098;27;20870;-67
2022/02/19 00:28:32;;;;;;;3.20;3.00;;;13.30;98.90;;;;;;5142634;28;20579;-66
2022/02/19 00:31:04;;;;;;;4.00;3.60;;;13.30;99.00;;;;;;5142062;28;20429;-68
2022/02/19 00:33:39;;;;;;;4.17;3.13;;;13.30;99.50;;;;;;5142748;27;20443;-67
2022/02/19 00:36:10;;;;;;;3.30;3.00;;;13.20;99.70;;;;;;5142296;27;20516;-67
2022/02/19 00:38:44;;;;;;;6.63;3.10;;;13.20;99.40;;;;;;5137308;28;20455;-66
2022/02/19 00:41:16;;;;;;;4.20;3.60;;;13.20;99.70;;;;;;5141130;28;20475;-66
2022/02/19 00:43:51;;;;;;;4.97;4.23;;;13.10;99.80;;;;;;5141272;27;20464;-66
2022/02/19 00:46:24;;;;;;;4.47;4.07;;;13.10;99.90;;;;;;5135067;27;20440;-66
2022/02/19 00:48:55;;;;;;;4.33;3.93;;;13.10;99.90;;;;;;5142542;27;20445;-65
2022/02/19 00:51:25;;;;;;;5.23;3.97;;;13.10;99.90;;;;;;5142071;28;20894;-64
2022/02/19 00:54:00;;;;;;;4.97;4.33;;;13.10;99.90;;;;;;5141590;27;20448;-65
2022/02/19 00:56:34;;;;;;;4.53;4.13;;;13.10;99.90;;;;;;5141603;27;20481;-72
2022/02/19 00:59:05;;;;;;;5.57;4.47;;;13.00;99.90;;;;;;5142494;27;20453;-65
2022/02/19 01:01:39;;;;;;;4.87;4.27;;;12.90;99.90;;;;;;5141819;28;20479;-65
2022/02/19 01:04:10;;;;;;;4.50;4.10;;;12.80;99.90;;;;;;5144232;27;20508;-65
2022/02/19 01:06:44;;;;;;;4.93;4.00;;;12.80;99.90;;;;;;5144013;27;20558;-66
2022/02/19 01:09:15;;;;;;;5.10;4.63;;;12.70;99.90;;;;;;5143099;27;20441;-65
2022/02/19 01:11:46;;;;;;;4.93;4.43;;;12.60;99.90;;;;;;5146082;27;20444;-64
2022/02/19 01:14:17;;;;;;;4.83;4.47;;;12.50;99.90;;;;;;5144487;27;20479;-65
2022/02/19 01:16:49;;;;;;;5.10;4.70;;;12.50;99.90;;;;;;5146567;27;20540;-65
2022/02/19 01:19:20;;;;;;;5.60;5.10;;;12.50;99.90;;;;;;5147015;27;20952;-66
2022/02/19 01:21:51;;;;;;;5.17;4.40;;;12.40;99.90;;;;;;5146024;27;20936;-65
2022/02/19 01:24:22;;;;;;;6.30;5.27;;;12.40;99.90;;;;;;5144891;27;20463;-65
2022/02/19 01:26:52;;;;;;;5.40;4.90;;;12.30;99.90;;;;;;5145393;27;20444;-65
2022/02/19 01:29:23;;;;;;;5.03;4.63;;;12.20;99.90;;;;;;5143796;27;20448;-65
2022/02/19 01:31:56;;;;;;;4.87;4.40;;;12.10;99.90;;;;;;5143453;27;20523;-63
2022/02/19 01:34:27;;;;;;;5.00;4.60;;;12.00;99.90;;;;;;5145348;27;20432;-65
2022/02/19 01:36:58;;;;;;;4.70;4.30;;;11.90;99.90;;;;;;5143717;27;20504;-65
2022/02/19 01:39:30;;;;;;;6.60;4.60;;;11.90;99.90;;;;;;5133674;27;20513;-64
2022/02/19 01:42:01;;;;;;;5.00;4.53;;;11.80;99.90;;;;;;5144808;27;20448;-64
2022/02/19 01:44:39;;;;;;;6.00;5.20;;;11.60;99.90;;;;;;5144766;27;20460;-62
2022/02/19 01:47:12;;;;;;;5.50;5.00;;;11.50;99.90;;;;;;5143138;27;20452;-68
2022/02/19 01:49:44;;;;;;;5.50;5.00;;;11.40;99.90;;;;;;5145818;27;20444;-64
2022/02/19 01:52:17;;;;;;;5.17;4.67;;;11.30;99.90;;;;;;5144797;27;20571;-65
2022/02/19 01:54:49;;;;;;;9.43;5.03;;;11.20;99.90;;;;;;5145078;27;20559;-64
2022/02/19 01:57:20;;;;;;;5.43;4.93;;;11.00;99.90;;;;;;5144722;27;20492;-66
2022/02/19 01:59:52;;;;;;;5.80;5.20;;;10.90;99.90;;;;;;5144939;27;20456;-65
2022/02/19 02:02:34;;;;;;;5.70;5.20;;;10.80;99.90;;;;;;5145121;27;20975;-65
2022/02/19 02:05:05;;;;;;;6.60;6.03;;;10.80;99.90;;;;;;5138162;27;20445;-69
2022/02/19 02:07:38;;;;;;;7.13;6.50;;;10.70;99.90;;;;;;5142539;27;21729;-72
2022/02/19 02:10:12;;;;;;;7.83;7.13;;;10.60;99.90;;;;;;5142942;27;20580;-69
2022/02/19 02:12:43;;;;;;;7.43;6.80;;;10.50;99.90;;;;;;5141979;27;20837;-64
2022/02/19 02:15:28;;;;;;;10.00;7.27;;;10.40;99.90;;;;;;5139482;27;20463;-63
2022/02/19 02:18:02;;;;;;;7.03;5.90;;;10.30;99.90;;;;;;5145549;27;20504;-65
2022/02/19 02:20:33;;;;;;;6.07;5.50;;;10.30;99.90;;;;;;5145589;27;20479;-62
2022/02/19 02:23:07;;;;;;;6.57;5.87;;;10.20;99.90;;;;;;5144675;27;20496;-66
2022/02/19 02:25:38;;;;;;;6.40;5.80;;;10.20;99.90;;;;;;5144447;27;20559;-62
2022/02/19 02:28:11;;;;;;;7.20;6.50;;;10.10;99.90;;;;;;5142553;27;20455;-69
2022/02/19 02:30:42;;;;;;;8.43;5.80;;;10.10;99.90;;;;;;5143037;27;20441;-66
2022/02/19 02:33:16;;;;;;;6.87;5.87;;;10.10;99.90;;;;;;5142800;27;20464;-68
2022/02/19 02:35:50;;;;;;;8.00;6.90;;;10.10;99.90;;;;;;5143640;27;20497;-72
2022/02/19 02:38:23;;;;;;;8.17;7.37;;;10.00;99.90;;;;;;5144998;27;20447;-64
2022/02/19 02:40:55;;;;;;;8.50;6.73;;;9.90;99.90;;;;;;5145180;27;20449;-64
2022/02/19 02:43:26;;;;;;;13.50;8.80;;;9.90;99.90;;;;;;5132706;27;21015;-71
2022/02/19 02:45:57;;;;;;;8.60;7.47;;;9.90;99.90;;;;;;5135441;27;20541;-66
2022/02/19 02:48:28;;;;;;;11.30;7.80;;;9.80;99.90;;;;;;5138120;27;20445;-66
2022/02/19 02:51:01;;;;;;;8.70;7.00;;;9.70;99.90;;;;;;5143821;27;20437;-65
2022/02/19 02:53:49;;;;;;;7.20;6.50;;;9.70;99.90;;;;;;5143747;27;20441;-66
2022/02/19 02:56:24;;;;;;;8.40;7.53;;;9.70;99.90;;;;;;5144323;27;20473;-69
2022/02/19 02:58:54;;;;;;;8.43;7.10;;;9.50;99.90;;;;;;5143947;27;21219;-64
2022/02/19 03:01:26;;;;;;;8.47;7.60;;;9.50;99.90;;;;;;5144560;27;20444;-64
2022/02/19 03:03:56;;;;;;;10.20;8.00;;;9.50;99.90;;;;;;5141528;27;20484;-64
2022/02/19 03:06:28;;;;;;;9.20;7.90;;;9.40;99.90;;;;;;5144522;27;20437;-63
2022/02/19 03:09:00;;;;;;;8.63;7.70;;;9.30;99.90;;;;;;5143538;27;20900;-65
2022/02/19 03:11:32;;;;;;;10.50;8.70;;;9.30;99.90;;;;;;5143656;27;20226;-63
2022/02/19 03:14:05;;;;;;;8.47;7.63;;;9.20;99.90;;;;;;5142818;27;20242;-64
2022/02/19 03:16:36;;;;;;;9.40;8.50;;;9.10;99.90;;;;;;5144025;27;20444;-65
2022/02/19 03:19:11;;;;;;;10.00;8.00;;;9.10;99.90;;;;;;5144322;27;20474;-63
2022/02/19 03:21:48;;;;;;;11.15;9.50;;;9.10;99.90;;;;;;5143256;27;20510;-63
2022/02/19 03:24:22;;;;;;;10.73;7.60;;;8.90;99.90;;;;;;5142931;27;20246;-62
2022/02/19 03:27:03;;;;;;;10.27;8.90;;;8.90;99.90;;;;;;5142919;27;20214;-61
2022/02/19 03:29:45;;;;;;;12.45;10.13;;;8.90;99.90;;;;;;5141966;27;20203;-64
2022/02/19 03:32:16;;;;;;;14.25;11.65;;;8.80;99.90;;;;;;5141614;27;20230;-62
2022/02/19 03:34:50;;;;;;;14.15;10.90;;;8.80;99.90;;;;;;5141773;27;20214;-64
2022/02/19 03:37:24;;;;;;;12.73;10.80;;;8.70;99.90;;;;;;5143485;27;20232;-63
2022/02/19 03:39:56;;;;;;;11.10;9.70;;;8.70;99.90;;;;;;5143045;27;20618;-63
2022/02/19 03:42:27;;;;;;;12.98;10.15;;;8.60;99.90;;;;;;5143251;27;20203;-64
2022/02/19 03:44:58;;;;;;;14.30;10.80;;;8.60;99.90;;;;;;5140809;27;20227;-63
2022/02/19 03:47:31;;;;;;;12.93;10.23;;;8.60;99.90;;;;;;5142358;27;20468;-63
2022/02/19 03:50:08;;;;;;;11.80;10.00;;;8.60;99.90;;;;;;5143041;27;20650;-64
2022/02/19 03:52:47;;;;;;;11.90;10.45;;;8.50;99.90;;;;;;5141700;27;20191;-64
2022/02/19 03:55:19;;;;;;;12.43;10.32;;;8.50;99.90;;;;;;5140391;27;20251;-63
2022/02/19 03:57:50;;;;;;;15.05;11.15;;;8.50;99.90;;;;;;5143929;27;20191;-63
2022/02/19 04:00:21;;;;;;;14.30;11.15;;;8.40;99.90;;;;;;5141974;27;20595;-63
2022/02/19 04:02:52;;;;;;;12.45;10.60;;;8.30;99.90;;;;;;5143172;27;20206;-63
2022/02/19 04:05:23;;;;;;;14.20;10.60;;;8.30;99.90;;;;;;5142231;27;20278;-63
2022/02/19 04:07:54;;;;;;;14.68;11.63;;;8.20;99.90;;;;;;5143015;27;20542;-62
2022/02/19 04:10:29;;;;;;;12.82;11.48;;;8.30;99.90;;;;;;5141723;27;20187;-62
2022/02/19 04:13:04;;;;;;;14.43;12.32;;;8.20;99.90;;;;;;5143298;27;20262;-62
2022/02/19 04:15:54;;;;;;;19.25;14.60;;;8.20;99.90;;;;;;5141855;27;20191;-63
2022/02/19 04:18:32;;;;;;;15.15;12.18;;;8.00;99.90;;;;;;5141164;28;20219;-64
2022/02/19 04:21:22;;;;;;;14.48;12.93;;;7.90;99.90;;;;;;5143416;27;20251;-63
2022/02/19 04:23:55;;;;;;;16.15;14.27;;;7.90;99.90;;;;;;5140236;28;20249;-62
2022/02/19 04:26:28;;;;;;;16.70;14.50;;;7.90;99.90;;;;;;5141456;28;20195;-62
2022/02/19 04:28:59;;;;;;;16.45;14.80;;;7.90;99.90;;;;;;5142067;28;20901;-62
2022/02/19 04:31:30;;;;;;;18.73;16.17;;;7.80;99.90;;;;;;5141951;28;20521;-62
2022/02/19 04:34:00;;;;;;;19.83;17.77;;;7.80;99.90;;;;;;5142618;27;20201;-61
2022/02/19 04:36:31;;;;;;;19.73;17.67;;;7.70;99.90;;;;;;5138615;27;20199;-62
2022/02/19 04:39:02;;;;;;;19.77;17.65;;;7.70;99.90;;;;;;5143847;27;20191;-63
2022/02/19 04:41:35;;;;;;;21.20;18.63;;;7.70;99.90;;;;;;5145473;27;20199;-63
2022/02/19 04:44:08;;;;;;;17.23;15.43;;;7.60;99.90;;;;;;5145905;27;20231;-62
2022/02/19 04:46:39;;;;;;;19.42;15.68;;;7.60;99.90;;;;;;5143265;27;20282;-62
2022/02/19 04:49:10;;;;;;;18.25;13.95;;;7.60;99.90;;;;;;5146340;27;20195;-62
2022/02/19 04:51:41;;;;;;;18.83;15.60;;;7.60;99.90;;;;;;5144604;27;20191;-62
2022/02/19 04:54:12;;;;;;;16.20;14.50;;;7.60;99.90;;;;;;5144291;27;20207;-61
2022/02/19 04:56:44;;;;;;;18.98;15.48;;;7.60;99.90;;;;;;5145290;27;20227;-62
2022/02/19 04:59:15;;;;;;;17.27;15.50;;;7.40;99.90;;;;;;5145775;27;20192;-63
2022/02/19 05:01:48;;;;;;;18.60;16.77;;;7.50;99.90;;;;;;5147219;27;20195;-63
2022/02/19 05:04:19;;;;;;;22.80;17.95;;;7.40;99.90;;;;;;5146342;27;20227;-63
2022/02/19 05:06:50;;;;;;;21.33;19.10;;;7.40;99.90;;;;;;5145624;27;20203;-63
2022/02/19 05:09:21;;;;;;;19.00;17.00;;;7.30;99.90;;;;;;5145896;27;20217;-62
2022/02/19 05:11:53;;;;;;;19.25;17.30;;;7.20;99.90;;;;;;5146944;27;20209;-62
2022/02/19 05:14:25;;;;;;;19.80;16.00;;;7.20;99.90;;;;;;5146229;27;20662;-63
2022/02/19 05:16:56;;;;;;;18.20;16.33;;;7.20;99.90;;;;;;5146287;27;20201;-62
2022/02/19 05:19:27;;;;;;;18.42;16.48;;;7.20;99.90;;;;;;5146679;27;20252;-62
2022/02/19 05:21:57;;;;;;;19.30;17.25;;;7.20;99.90;;;;;;5146080;27;20238;-62
2022/02/19 05:24:28;;;;;;;19.02;17.02;;;7.10;99.90;;;;;;5145539;27;20234;-62
2022/02/19 05:27:01;;;;;;;18.85;16.70;;;7.10;99.90;;;;;;5145157;27;20199;-63
2022/02/19 05:29:32;;;;;;;19.10;16.73;;;7.00;99.90;;;;;;5140092;27;20199;-63
2022/02/19 05:32:03;;;;;;;22.30;17.75;;;7.00;99.90;;;;;;5145755;27;20198;-62
2022/02/19 05:34:34;;;;;;;20.52;18.27;;;6.90;99.90;;;;;;5146209;27;20242;-62
2022/02/19 05:37:05;;;;;;;19.80;17.80;;;7.00;99.90;;;;;;5145077;27;20200;-62
2022/02/19 05:39:36;;;;;;;19.25;17.35;;;6.90;99.90;;;;;;5145735;27;20226;-63
2022/02/19 05:42:09;;;;;;;20.23;18.00;;;6.90;99.90;;;;;;5145919;27;20219;-62
2022/02/19 05:44:41;;;;;;;20.42;18.13;;;6.90;99.90;;;;;;5145822;27;20204;-62
2022/02/19 05:47:12;;;;;;;21.83;19.58;;;6.90;99.90;;;;;;5137360;27;20237;-62
2022/02/19 05:49:43;;;;;;;20.60;18.40;;;6.80;99.90;;;;;;5145904;27;20197;-62
2022/02/19 05:52:14;;;;;;;21.00;18.50;;;6.80;99.90;;;;;;5145250;27;20207;-62
2022/02/19 05:54:45;;;;;;;19.77;17.75;;;6.70;99.90;;;;;;5143905;27;20536;-62
2022/02/19 05:57:18;;;;;;;19.55;17.63;;;6.70;99.90;;;;;;5144086;27;20320;-63
2022/02/19 05:59:49;;;;;;;20.05;17.45;;;6.70;99.90;;;;;;5145004;27;20583;-63
2022/02/19 06:02:21;;;;;;;20.08;17.85;;;6.60;99.90;;;;;;5146567;27;20307;-63
2022/02/19 06:05:14;;;;;;;21.90;19.65;;;6.60;99.90;;;;;;5145880;27;20226;-63
2022/02/19 06:07:56;;;;;;;19.73;17.73;;;6.60;99.90;;;;;;5145234;27;20203;-62
2022/02/19 06:10:27;;;;;;;21.33;17.70;;;6.50;99.90;;;;;;5143833;27;20218;-62
2022/02/19 06:13:00;;;;;;;21.27;19.00;;;6.60;99.90;;;;;;5139991;27;20218;-61
2022/02/19 06:15:31;;;;;;;19.10;17.20;;;6.50;99.90;;;;;;5139471;27;20259;-62
2022/02/19 06:18:02;;;;;;;20.08;17.75;;;6.50;99.90;;;;;;5138759;27;20223;-64
2022/02/19 06:20:33;;;;;;;20.58;17.13;;;6.50;99.90;;;;;;5142172;27;20191;-62
2022/02/19 06:23:04;;;;;;;19.60;17.50;;;6.50;99.90;;;;;;5141072;27;20357;-63
2022/02/19 06:25:35;;;;;;;20.95;17.35;;;6.40;99.90;;;;;;5142966;27;20230;-63
2022/02/19 06:28:07;;;;;;;20.10;18.10;;;6.30;99.90;;;;;;5144320;27;20226;-63
2022/02/19 06:30:39;;;;;;;19.40;17.35;;;6.30;99.90;;;;;;5144547;27;20199;-63
2022/02/19 06:33:10;;;;;;;21.08;18.40;;;6.20;99.90;;;;;;5145954;27;20570;-63
2022/02/19 06:35:40;;;;;;;19.65;17.65;;;6.30;99.90;;;;;;5145498;27;20195;-63
2022/02/19 06:38:11;;;;;;;19.88;17.25;;;6.30;99.90;;;;;;5145246;27;20209;-63
2022/02/19 06:40:43;;;;;;;19.48;16.92;;;6.30;99.90;;;;;;5144338;27;20614;-63
2022/02/19 06:43:15;;;;;;;19.85;17.75;;;6.30;99.90;;;;;;5145367;27;20219;-63
2022/02/19 06:45:46;;;;;;;18.23;16.30;;;6.20;99.90;;;;;;5142466;27;20233;-63
2022/02/19 06:48:17;;;;;;;17.30;15.25;;;6.30;99.90;;;;;;5142889;27;20193;-62
2022/02/19 06:50:48;;;;;;;18.80;16.90;;;6.20;99.90;;;;;;5144593;27;20187;-62
2022/02/19 06:53:19;;;;;;;20.02;16.88;;;6.20;99.90;;;;;;5143752;27;20266;-62
2022/02/19 06:55:50;;;;;;;16.65;14.95;;;6.20;99.90;;;;;;5144357;27;20264;-64
2022/02/19 06:58:23;;;;;;;18.75;16.33;;;6.10;99.90;;;;;;5142432;27;20194;-63
2022/02/19 07:00:53;;;;;;;17.27;15.48;;;6.00;99.90;;;;;;5142057;27;20538;-63
2022/02/19 07:03:24;;;;;;;19.75;16.27;;;6.00;99.90;;;;;;5144395;27;20610;-62
2022/02/19 07:05:56;;;;;;;18.27;16.05;;;6.10;99.90;;;;;;5144122;27;20336;-62
2022/02/19 07:08:27;;;;;;;19.30;17.40;;;6.10;99.90;;;;;;5142992;27;20199;-62
2022/02/19 07:10:58;;;;;;;20.08;16.40;;;6.00;99.90;;;;;;5139599;27;20210;-62
2022/02/19 07:13:30;;;;;;;17.40;15.60;;;6.00;99.90;;;;;;5143053;27;20662;-63
2022/02/19 07:16:03;;;;;;;20.90;18.70;;;6.00;99.90;;;;;;5143183;27;20203;-62
2022/02/19 07:18:34;;;;;;;19.80;17.80;;;6.00;99.90;;;;;;5140808;27;20330;-63
2022/02/19 07:21:05;;;;;;;18.42;16.48;;;5.90;99.90;;;;;;5143544;27;20203;-63
2022/02/19 07:23:36;;;;;;;19.17;17.17;;;5.80;99.90;;;;;;5142876;27;20223;-63
2022/02/19 07:26:07;;;;;;;17.90;16.13;;;5.80;99.90;;;;;;5143318;27;20231;-62
2022/02/19 07:28:39;;;;;;;17.30;15.60;;;5.80;99.90;;;;;;5141936;27;20203;-62
2022/02/19 07:31:10;;;;;;;18.88;14.70;;;5.80;99.90;;;;;;5143805;27;20195;-63
2022/02/19 07:33:41;;;;;;;16.23;14.57;;;5.70;99.90;;;;;;5141981;27;20243;-63
2022/02/19 07:36:11;;;;;;;17.27;15.50;;;5.70;99.90;;;;;;5143951;27;20195;-63
2022/02/19 07:38:42;;;;;;;17.17;15.30;;;5.70;99.90;;;;;;5142122;27;20217;-63
2022/02/19 07:41:13;;;;;;;15.77;14.18;;;5.60;99.90;;;;;;5142526;27;20200;-63
2022/02/19 07:43:45;;;;;;;17.75;15.20;;;5.60;99.90;;;;;;5142754;27;20213;-63
2022/02/19 07:46:16;;;;;;;16.65;14.38;;;5.60;99.90;;;;;;5135468;27;20260;-61
2022/02/19 07:48:47;;;;;;;19.73;16.05;;;5.60;99.90;;;;;;5142879;27;20192;-61
2022/02/19 07:59:45;;;;;;;15.63;13.93;;;5.50;99.90;;;;;;5129841;28;20195;-61
2022/02/19 08:02:18;;;;;;;17.40;15.60;;;5.40;99.90;;;;;;5140958;28;20209;-61
2022/02/19 08:04:49;;;;;;;16.42;14.30;;;5.30;99.90;;;;;;5143391;27;20195;-62
2022/02/19 08:07:20;;;;;;;16.00;14.30;;;5.30;99.90;;;;;;5142436;27;20231;-61
2022/02/19 08:09:51;;;;;;;26.42;23.52;;;5.30;99.90;;;;;;5143667;27;20180;-62
2022/02/19 08:12:22;;;;;;;29.38;26.38;;;5.30;99.90;;;;;;5144810;27;20658;-61
2022/02/19 08:14:54;;;;;;;30.73;26.55;;;5.30;99.90;;;;;;5146803;27;20211;-61
2022/02/19 08:17:27;;;;;;;29.27;26.20;;;5.30;99.90;;;;;;5147234;27;20210;-62
2022/02/19 08:19:58;;;;;;;28.90;25.63;;;5.30;99.90;;;;;;5147627;27;20199;-62
2022/02/19 08:22:29;;;;;;;28.17;25.27;;;5.30;99.90;;;;;;5147681;27;20254;-62
2022/02/19 08:25:00;;;;;;;29.52;24.63;;;5.20;99.90;;;;;;5146829;27;20273;-62
2022/02/19 08:27:34;;;;;;;29.77;24.88;;;5.20;99.90;;;;;;5144998;27;20218;-63
2022/02/19 08:30:11;;;;;;;35.67;27.05;;;5.10;99.90;;;;;;5146986;27;20216;-62
2022/02/19 08:32:43;;;;;;;30.88;26.10;;;5.10;99.90;;;;;;5147544;27;20282;-62
2022/02/19 08:35:14;;;;;;;30.90;24.55;;;5.10;99.90;;;;;;5146215;27;20217;-62
2022/02/19 08:37:45;;;;;;;31.13;25.40;;;5.10;99.90;;;;;;5145306;27;20297;-62
2022/02/19 08:40:16;;;;;;;29.00;25.60;;;5.00;99.90;;;;;;5147212;27;20215;-62
2022/02/19 08:42:47;;;;;;;29.30;26.08;;;5.00;99.90;;;;;;5146030;27;20694;-62
2022/02/19 08:45:20;;;;;;;24.83;22.17;;;4.90;99.90;;;;;;5144757;27;20218;-62
2022/02/19 08:47:54;;;;;;;23.95;21.48;;;4.90;99.90;;;;;;5145977;27;20302;-62
2022/02/19 08:50:26;;;;;;;25.67;21.50;;;4.80;99.90;;;;;;5146185;27;20230;-62
2022/02/19 08:52:57;;;;;;;25.15;22.30;;;4.80;99.90;;;;;;5145791;27;20198;-62
2022/02/19 08:55:30;;;;;;;28.38;22.67;;;4.70;99.90;;;;;;5146941;27;20239;-63
2022/02/19 08:58:01;;;;;;;24.17;21.45;;;4.70;99.90;;;;;;5145762;27;20217;-62
2022/02/19 09:00:33;;;;;;;27.95;22.90;;;4.70;99.90;;;;;;5145457;27;20195;-62
2022/02/19 09:03:04;;;;;;;26.05;23.45;;;4.80;99.90;;;;;;5145198;27;20195;-61
2022/02/19 09:05:35;;;;;;;24.35;21.75;;;4.80;99.90;;;;;;5145788;27;20217;-61
2022/02/19 09:08:06;;;;;;;27.52;22.65;;;4.80;99.90;;;;;;5145482;27;20247;-61
2022/02/19 09:10:38;;;;;;;24.80;21.92;;;4.70;99.90;;;;;;5145358;27;20195;-61
2022/02/19 09:13:09;;;;;;;25.38;20.88;;;4.70;99.90;;;;;;5142628;27;20200;-62
2022/02/19 09:15:43;;;;;;;20.92;18.73;;;4.60;99.90;;;;;;5139904;27;20200;-62
2022/02/19 09:18:14;;;;;;;21.88;19.00;;;4.60;99.90;;;;;;5145549;27;20203;-62
2022/02/19 09:20:44;;;;;;;21.75;17.98;;;4.60;99.90;;;;;;5144997;27;20204;-62
2022/02/19 09:23:15;;;;;;;18.80;16.45;;;4.60;99.90;;;;;;5145122;27;20190;-62
2022/02/19 09:25:46;;;;;;;16.88;15.05;;;4.50;99.90;;;;;;5145239;27;20321;-62
2022/02/19 09:28:20;;;;;;;17.63;15.93;;;4.50;99.90;;;;;;5144544;27;20219;-62
2022/02/19 09:30:52;;;;;;;15.75;13.80;;;4.50;99.90;;;;;;5141458;27;20226;-62
2022/02/19 09:33:23;;;;;;;16.00;14.40;;;4.50;99.90;;;;;;5143561;27;20755;-62
2022/02/19 09:35:54;;;;;;;16.73;13.40;;;4.60;99.90;;;;;;5146156;27;20287;-62
2022/02/19 09:38:25;;;;;;;16.52;14.90;;;4.60;99.90;;;;;;5144513;27;20199;-62
2022/02/19 09:40:57;;;;;;;16.25;14.60;;;4.60;99.90;;;;;;5144372;27;20210;-62
2022/02/19 09:43:28;;;;;;;19.13;15.70;;;4.50;99.90;;;;;;5144995;27;20282;-61
2022/02/19 09:46:00;;;;;;;17.65;14.60;;;4.60;99.90;;;;;;5144145;27;20225;-62
2022/02/19 09:48:32;;;;;;;15.82;13.45;;;4.60;99.90;;;;;;5145283;27;20292;-62
2022/02/19 09:51:05;;;;;;;15.18;12.52;;;4.70;99.90;;;;;;5132892;27;20677;-62
2022/02/19 09:53:37;;;;;;;15.88;14.18;;;4.60;99.90;;;;;;5145652;27;20294;-62
2022/02/19 09:56:08;;;;;;;15.77;13.65;;;4.70;99.90;;;;;;5145539;27;20231;-62
2022/02/19 09:58:43;;;;;;;19.67;13.63;;;4.70;99.90;;;;;;5144817;27;20199;-62
2022/02/19 10:01:23;;;;;;;13.80;12.30;;;4.60;99.90;;;;;;5135965;27;20205;-62
2022/02/19 10:03:58;;;;;;;12.45;10.13;;;4.60;99.90;;;;;;5144516;27;20216;-62
2022/02/19 10:06:33;;;;;;;13.82;11.02;;;4.60;99.90;;;;;;5144651;27;20205;-62
2022/02/19 10:09:11;;;;;;;12.40;11.20;;;4.60;99.90;;;;;;5144375;27;20271;-62
2022/02/19 10:11:42;;;;;;;14.65;11.27;;;4.60;99.90;;;;;;5142024;27;20195;-62
2022/02/19 10:14:24;;;;;;;17.00;12.23;;;4.60;99.90;;;;;;5143057;27;20199;-62
2022/02/19 10:17:15;;;;;;;12.57;10.90;;;4.60;99.90;;;;;;5143454;27;20218;-62
2022/02/19 10:19:54;;;;;;;13.60;11.25;;;4.50;99.90;;;;;;5138390;27;20191;-62
2022/02/19 10:22:27;;;;;;;15.82;10.95;;;4.50;99.90;;;;;;5143787;27;20359;-62
2022/02/19 10:24:59;;;;;;;13.18;11.85;;;4.50;99.90;;;;;;5140074;27;20274;-62
2022/02/19 10:27:48;;;;;;;11.52;9.73;;;4.50;99.90;;;;;;5143503;27;20581;-62
2022/02/19 10:30:20;;;;;;;12.55;10.57;;;4.40;99.90;;;;;;5144424;27;20194;-61
2022/02/19 10:32:54;;;;;;;14.70;10.85;;;4.40;99.90;;;;;;5141180;27;20214;-62
2022/02/19 10:35:32;;;;;;;14.02;11.85;;;4.40;99.90;;;;;;5139650;27;20206;-62
2022/02/19 10:38:04;;;;;;;12.48;11.05;;;4.40;99.90;;;;;;5144249;27;20218;-62
2022/02/19 10:40:39;;;;;;;14.32;10.52;;;4.40;99.90;;;;;;5143493;27;20242;-61
2022/02/19 10:43:11;;;;;;;13.18;10.90;;;4.50;99.90;;;;;;5144614;27;20281;-62
2022/02/19 10:45:54;;;;;;;20.40;12.27;;;4.40;99.90;;;;;;5127942;27;20195;-61
2022/02/19 10:48:28;;;;;;;17.38;12.27;;;4.40;99.90;;;;;;5144569;27;20225;-62
2022/02/19 10:51:10;;;;;;;24.70;14.05;;;4.50;99.90;;;;;;5143800;27;20203;-61
2022/02/19 10:53:43;;;;;;;21.88;14.73;;;4.60;99.90;;;;;;5142396;27;20283;-62
2022/02/19 10:56:15;;;;;;;19.02;14.15;;;4.70;99.90;;;;;;5144572;27;20243;-62
2022/02/19 10:59:00;;;;;;;18.27;12.95;;;4.70;99.90;;;;;;5143517;27;20281;-61
2022/02/19 11:01:40;;;;;;;23.88;14.02;;;4.70;99.90;;;;;;5137219;27;20706;-60
2022/02/19 11:04:15;;;;;;;39.58;16.27;;;4.80;99.90;;;;;;5142321;27;20191;-62
2022/02/19 11:06:49;;;;;;;39.40;18.08;;;4.90;99.90;;;;;;5144463;27;20215;-61
2022/02/19 11:09:22;;;;;;;41.33;21.00;;;5.10;99.90;;;;;;5143209;27;20267;-62
2022/02/19 11:11:54;;;;;;;23.30;16.00;;;5.10;99.90;;;;;;5143975;27;20290;-61
2022/02/19 11:14:25;;;;;;;26.73;15.50;;;5.20;99.90;;;;;;5142849;27;20207;-61
2022/02/19 11:16:58;;;;;;;29.77;17.75;;;5.20;99.90;;;;;;5143866;27;20373;-61
2022/02/19 11:19:34;;;;;;;31.08;17.05;;;5.30;99.90;;;;;;5143201;27;20203;-61
2022/02/19 11:22:06;;;;;;;31.10;18.08;;;5.30;99.90;;;;;;5142846;27;20238;-60
2022/02/19 11:24:41;;;;;;;27.73;16.60;;;5.30;99.90;;;;;;5143140;27;20238;-61
2022/02/19 11:27:14;;;;;;;35.53;17.42;;;5.40;99.90;;;;;;5141201;27;20220;-61
2022/02/19 11:29:45;;;;;;;34.95;17.60;;;5.50;99.90;;;;;;5143493;27;20210;-61
2022/02/19 11:32:19;;;;;;;41.15;18.27;;;5.50;99.90;;;;;;5143122;27;20198;-61
2022/02/19 11:34:56;;;;;;;55.03;18.83;;;5.60;99.90;;;;;;5130375;27;20210;-61
2022/02/19 11:37:27;;;;;;;54.08;18.80;;;5.70;99.90;;;;;;5143170;27;20194;-62
2022/02/19 11:40:10;;;;;;;39.10;18.30;;;5.70;99.90;;;;;;5142901;27;20188;-61
2022/02/19 11:42:50;;;;;;;64.40;20.00;;;5.70;99.90;;;;;;5137853;27;20196;-61
2022/02/19 11:45:23;;;;;;;33.67;16.55;;;5.70;99.90;;;;;;5141384;27;20294;-61
2022/02/19 11:47:56;;;;;;;62.67;19.67;;;5.70;99.90;;;;;;5140934;27;20295;-61
2022/02/19 11:50:30;;;;;;;51.50;19.15;;;5.70;99.90;;;;;;5143077;27;20293;-61
2022/02/19 11:53:23;;;;;;;38.63;17.40;;;5.80;99.90;;;;;;5141678;27;20218;-61
2022/02/19 11:55:54;;;;;;;41.55;18.95;;;5.80;99.90;;;;;;5132768;27;20227;-62
2022/02/19 11:58:28;;;;;;;42.42;18.85;;;5.70;99.90;;;;;;5134090;27;20187;-61
2022/02/19 12:01:03;;;;;;;41.20;19.42;;;5.80;99.90;;;;;;5142031;27;22013;-61
2022/02/19 12:03:34;;;;;;;37.35;17.00;;;5.80;99.90;;;;;;5142459;27;20199;-61
2022/02/19 12:06:15;;;;;;;32.50;17.42;;;5.80;99.90;;;;;;5142905;27;20206;-61
2022/02/19 12:09:04;;;;;;;34.70;17.85;;;5.80;99.90;;;;;;5142406;27;20219;-61
2022/02/19 12:12:12;;;;;;;26.17;17.20;;;5.90;99.90;;;;;;5142049;27;20199;-61
2022/02/19 12:14:50;;;;;;;24.42;14.82;;;5.90;99.90;;;;;;5139707;28;20207;-61
2022/02/19 12:17:44;;;;;;;23.20;15.07;;;5.90;99.90;;;;;;5142231;28;20724;-61
2022/02/19 12:20:29;;;;;;;23.33;13.60;;;6.00;99.90;;;;;;5138966;28;20196;-61
2022/02/19 12:23:03;;;;;;;21.08;13.45;;;6.00;99.90;;;;;;5141214;28;20198;-61
2022/02/19 12:26:10;;;;;;;41.30;15.15;;;6.00;99.90;;;;;;5142115;27;20304;-61
2022/02/19 12:28:42;;;;;;;19.20;11.35;;;5.90;99.90;;;;;;5134577;28;20314;-61
2022/02/19 12:31:20;;;;;;;24.75;10.40;;;5.90;99.90;;;;;;5142883;28;20201;-61
2022/02/19 12:33:52;;;;;;;16.00;11.35;;;5.90;99.90;;;;;;5142239;28;20199;-61
2022/02/19 12:36:24;;;;;;;19.38;11.57;;;5.70;99.90;;;;;;5142564;27;20366;-61
2022/02/19 12:38:57;;;;;;;23.55;11.10;;;5.70;99.90;;;;;;5141484;27;20227;-61
2022/02/19 12:41:37;;;;;;;18.10;11.23;;;5.80;99.90;;;;;;5142331;27;20199;-61
2022/02/19 12:44:13;;;;;;;14.30;10.57;;;5.70;99.90;;;;;;5141685;27;20205;-62
2022/02/19 12:46:45;;;;;;;15.70;10.50;;;5.80;99.90;;;;;;5139300;28;20199;-62
2022/02/19 12:49:16;;;;;;;15.60;9.93;;;5.80;99.90;;;;;;5138919;28;20230;-62
2022/02/19 12:51:56;;;;;;;17.77;10.13;;;5.70;99.90;;;;;;5143097;27;20203;-62
2022/02/19 12:54:43;;;;;;;10.93;9.75;;;5.70;99.90;;;;;;5140713;27;20259;-63
2022/02/19 12:57:15;;;;;;;16.00;10.52;;;5.70;99.90;;;;;;5136401;28;20222;-63
2022/02/19 12:59:47;;;;;;;52.30;12.07;;;5.70;99.90;;;;;;5143398;27;20655;-60
2022/02/19 13:02:20;;;;;;;52.30;12.65;;;5.90;99.90;;;;;;5146092;27;20205;-61
2022/02/19 13:04:52;;;;;;;47.53;13.00;;;5.80;99.90;;;;;;5145414;27;20199;-60
2022/02/19 13:07:24;;;;;;;54.72;12.82;;;5.80;99.90;;;;;;5145614;27;20195;-61
2022/02/19 13:09:57;;;;;;;20.80;11.40;;;5.80;99.90;;;;;;5145610;27;20230;-61
2022/02/19 13:12:29;;;;;;;36.35;12.88;;;5.70;99.90;;;;;;5144851;27;20191;-60
2022/02/19 13:15:01;;;;;;;21.95;12.63;;;5.70;99.90;;;;;;5144709;27;20210;-63
2022/02/19 13:17:34;;;;;;;18.80;12.32;;;5.70;99.90;;;;;;5146473;27;20188;-61
2022/02/19 13:20:12;;;;;;;23.48;12.18;;;5.60;99.90;;;;;;5145195;27;20561;-61